createdAt,value
2023-03-06T00:00:58.541Z,98472.66
2023-03-06T00:03:27.963Z,98469.41
2023-03-06T00:05:57.808Z,98472.03
2023-03-06T00:08:28.120Z,98468.75
2023-03-06T00:10:56.590Z,98476.66
2023-03-06T00:13:26.753Z,98473.41
2023-03-06T00:15:54.199Z,98475.06
2023-03-06T00:18:21.222Z,98475.06
2023-03-06T00:20:48.656Z,98475.66
2023-03-06T00:23:15.656Z,98462.50
2023-03-06T00:25:46.381Z,98462.50
2023-03-06T00:28:15.718Z,98473.84
2023-03-06T00:30:44.432Z,98472.22
2023-03-06T00:33:11.920Z,98471.41
2023-03-06T00:35:42.396Z,98476.66
2023-03-06T00:38:12.627Z,98474.03
2023-03-06T00:40:40.156Z,98468.75
2023-03-06T00:43:07.433Z,98473.03
2023-03-06T00:45:36.033Z,98469.41
2023-03-06T00:48:03.213Z,98473.66
2023-03-06T00:50:30.420Z,98469.41
2023-03-06T00:52:57.675Z,98470.03
2023-03-06T00:55:25.406Z,98471.84
2023-03-06T00:57:52.465Z,98472.66
2023-03-06T01:00:20.692Z,98472.66
2023-03-06T01:02:49.721Z,98467.38
2023-03-06T01:05:17.075Z,98472.66
2023-03-06T01:07:44.053Z,98471.63
2023-03-06T01:10:12.161Z,98473.47
2023-03-06T01:12:39.572Z,98471.47
2023-03-06T01:15:07.913Z,98471.63
2023-03-06T01:17:35.016Z,98472.66
2023-03-06T01:20:04.769Z,98468.00
2023-03-06T01:22:32.020Z,98469.81
2023-03-06T01:25:00.170Z,98470.03
2023-03-06T01:27:27.180Z,98462.09
2023-03-06T01:29:54.358Z,98462.09
2023-03-06T01:32:21.916Z,98467.38
2023-03-06T01:34:49.829Z,98456.84
2023-03-06T01:37:17.268Z,98457.66
2023-03-06T01:39:44.662Z,98453.16
2023-03-06T01:42:11.616Z,98451.56
2023-03-06T01:45:27.279Z,98445.47
2023-03-06T01:47:54.297Z,98446.47
2023-03-06T01:50:21.854Z,98434.91
2023-03-06T01:52:55.351Z,98441.00
2023-03-06T01:55:30.780Z,98442.63
2023-03-06T01:58:04.823Z,98441.00
2023-03-06T02:00:32.322Z,98443.66
2023-03-06T02:03:09.343Z,98441.00
2023-03-06T02:05:41.553Z,98439.00
2023-03-06T02:08:16.517Z,98449.06
2023-03-06T02:11:08.330Z,98442.19
2023-03-06T02:13:37.154Z,98432.03
2023-03-06T02:16:05.542Z,98442.56
2023-03-06T02:18:34.364Z,98442.56
2023-03-06T02:21:08.543Z,98433.84
2023-03-06T02:23:54.400Z,98433.00
2023-03-06T02:26:23.350Z,98428.56
2023-03-06T02:28:50.374Z,98421.47
2023-03-06T02:31:27.787Z,98426.38
2023-03-06T02:34:07.899Z,98428.34
2023-03-06T02:36:42.785Z,98424.72
2023-03-06T02:39:11.242Z,98420.44
2023-03-06T02:41:39.273Z,98425.72
2023-03-06T02:44:07.795Z,98423.91
2023-03-06T02:46:35.878Z,98426.38
2023-03-06T02:49:03.138Z,98422.91
2023-03-06T02:51:30.393Z,98421.09
2023-03-06T02:53:57.324Z,98421.09
2023-03-06T02:56:24.550Z,98414.78
2023-03-06T02:58:52.098Z,98414.78
2023-03-06T03:01:20.364Z,98412.97
2023-03-06T03:03:47.437Z,98415.41
2023-03-06T03:06:16.247Z,98413.81
2023-03-06T03:08:44.368Z,98404.06
2023-03-06T03:11:12.464Z,98410.13
2023-03-06T03:13:43.728Z,98404.88
2023-03-06T03:16:16.713Z,98409.34
2023-03-06T03:18:47.643Z,98408.53
2023-03-06T03:21:17.160Z,98415.41
2023-03-06T03:23:45.031Z,98406.50
2023-03-06T03:26:17.638Z,98404.88
2023-03-06T03:28:49.932Z,98398.81
2023-03-06T03:31:19.696Z,98403.03
2023-03-06T03:33:47.349Z,98403.25
2023-03-06T03:36:14.867Z,98400.63
2023-03-06T03:38:45.730Z,98398.81
2023-03-06T03:41:13.118Z,98397.97
2023-03-06T03:43:40.182Z,98383.16
2023-03-06T03:46:07.581Z,98382.34
2023-03-06T03:48:35.015Z,98378.09
2023-03-06T03:51:13.905Z,98380.13
2023-03-06T04:06:36.999Z,98373.19
2023-03-06T04:09:06.131Z,98371.38
2023-03-06T04:11:35.586Z,98372.00
2023-03-06T04:14:03.412Z,98372.00
2023-03-06T04:16:31.135Z,98373.63
2023-03-06T04:18:58.628Z,98369.56
2023-03-06T04:21:26.559Z,98380.91
2023-03-06T04:23:54.428Z,98374.03
2023-03-06T04:26:21.504Z,98367.09
2023-03-06T04:28:49.023Z,98360.22
2023-03-06T04:31:16.606Z,98362.66
2023-03-06T04:33:43.885Z,98368.75
2023-03-06T04:36:28.330Z,98361.84
2023-03-06T04:39:00.001Z,98369.75
2023-03-06T04:41:27.576Z,98370.56
2023-03-06T04:43:55.153Z,98365.28
2023-03-06T04:46:25.412Z,98359.19
2023-03-06T04:48:52.613Z,98364.47
2023-03-06T04:51:19.617Z,98364.47
2023-03-06T04:53:46.805Z,98360.22
2023-03-06T04:56:13.700Z,98354.97
2023-03-06T04:58:41.075Z,98354.97
2023-03-06T05:01:08.063Z,98353.31
2023-03-06T05:03:35.295Z,98358.59
2023-03-06T05:06:02.972Z,98351.28
2023-03-06T05:08:30.517Z,98357.59
2023-03-06T05:11:02.766Z,98354.13
2023-03-06T05:13:30.087Z,98354.13
2023-03-06T05:16:06.359Z,98361.00
2023-03-06T05:18:34.901Z,98356.56
2023-03-06T05:21:02.656Z,98353.94
2023-03-06T05:23:33.244Z,98357.59
2023-03-06T05:26:00.531Z,98354.97
2023-03-06T05:28:28.609Z,98367.09
2023-03-06T05:30:55.925Z,98355.75
2023-03-06T05:33:23.274Z,98365.91
2023-03-06T05:35:50.606Z,98363.47
2023-03-06T05:38:17.910Z,98363.47
2023-03-06T05:40:45.490Z,98368.75
2023-03-06T05:43:12.879Z,98358.22
2023-03-06T05:45:40.820Z,98362.66
2023-03-06T05:48:10.435Z,98354.13
2023-03-06T05:50:37.696Z,98356.56
2023-03-06T05:53:06.428Z,98361.84
2023-03-06T05:55:33.556Z,98356.56
2023-03-06T05:58:01.028Z,98361.84
2023-03-06T06:00:28.387Z,98356.19
2023-03-06T06:02:55.611Z,98355.34
2023-03-06T06:05:22.642Z,98355.34
2023-03-06T06:07:49.950Z,98357.19
2023-03-06T06:10:17.705Z,98356.19
2023-03-06T06:12:44.843Z,98354.53
2023-03-06T06:15:11.910Z,98356.78
2023-03-06T06:17:39.015Z,98355.78
2023-03-06T06:20:07.009Z,98356.19
2023-03-06T06:22:37.826Z,98350.91
2023-03-06T06:25:06.559Z,98362.06
2023-03-06T06:27:33.875Z,98367.94
2023-03-06T06:30:00.912Z,98365.94
2023-03-06T06:32:29.511Z,98370.22
2023-03-06T06:34:57.241Z,98360.66
2023-03-06T06:37:25.969Z,98359.88
2023-03-06T06:39:53.060Z,98364.31
2023-03-06T06:42:31.439Z,98358.03
2023-03-06T06:45:05.168Z,98350.09
2023-03-06T06:47:34.270Z,98341.19
2023-03-06T06:50:01.389Z,98342.84
2023-03-06T06:52:28.658Z,98341.81
2023-03-06T06:54:55.696Z,98347.69
2023-03-06T06:57:22.864Z,98354.63
2023-03-06T06:59:52.446Z,98356.25
2023-03-06T07:02:22.563Z,98348.34
2023-03-06T07:05:02.953Z,98344.06
2023-03-06T07:07:35.802Z,98330.66
2023-03-06T07:10:08.512Z,98329.28
2023-03-06T07:12:37.173Z,98337.00
2023-03-06T07:15:07.072Z,98340.25
2023-03-06T07:17:35.270Z,98328.69
2023-03-06T07:20:06.977Z,98334.97
2023-03-06T07:22:50.004Z,98337.44
2023-03-06T07:25:18.707Z,98340.88
2023-03-06T07:27:52.733Z,98347.75
2023-03-06T07:30:22.549Z,98345.13
2023-03-06T07:32:53.896Z,98342.91
2023-03-06T07:35:21.580Z,98346.16
2023-03-06T07:37:49.131Z,98353.88
2023-03-06T07:40:16.635Z,98361.59
2023-03-06T07:42:43.975Z,98357.94
2023-03-06T07:45:13.903Z,98362.41
2023-03-06T07:47:41.288Z,98369.09
2023-03-06T07:50:09.508Z,98374.38
2023-03-06T07:52:36.941Z,98371.34
2023-03-06T07:55:04.776Z,98373.97
2023-03-06T07:57:32.057Z,98371.13
2023-03-06T07:59:59.286Z,98358.75
2023-03-06T08:02:26.707Z,98364.03
2023-03-06T08:04:55.708Z,98367.50
2023-03-06T08:07:23.472Z,98364.47
2023-03-06T08:09:51.498Z,98361.22
2023-03-06T08:12:19.124Z,98363.66
2023-03-06T08:14:46.376Z,98358.81
2023-03-06T08:17:13.816Z,98356.41
2023-03-06T08:19:40.969Z,98353.97
2023-03-06T08:22:08.485Z,98356.81
2023-03-06T08:24:35.494Z,98350.13
2023-03-06T08:27:03.362Z,98348.69
2023-03-06T08:29:32.083Z,98351.38
2023-03-06T08:31:59.539Z,98352.38
2023-03-06T08:34:26.951Z,98348.94
2023-03-06T08:36:54.391Z,98347.94
2023-03-06T08:39:23.802Z,98349.16
2023-03-06T08:41:51.436Z,98349.97
2023-03-06T08:44:18.736Z,98356.06
2023-03-06T08:46:46.060Z,98350.81
2023-03-06T08:49:13.952Z,98350.56
2023-03-06T08:51:42.428Z,98355.25
2023-03-06T08:54:13.066Z,98355.66
2023-03-06T08:56:40.377Z,98350.78
2023-03-06T08:59:09.289Z,98341.41
2023-03-06T09:01:38.526Z,98349.72
2023-03-06T09:04:09.785Z,98347.44
2023-03-06T09:06:41.692Z,98343.31
2023-03-06T09:09:09.462Z,98348.34
2023-03-06T09:11:37.348Z,98338.31
2023-03-06T09:14:05.463Z,98348.19
2023-03-06T09:16:33.376Z,98334.28
2023-03-06T09:19:00.543Z,98326.69
2023-03-06T09:21:28.595Z,98323.03
2023-03-06T09:23:56.044Z,98325.44
2023-03-06T09:26:32.833Z,98324.50
2023-03-06T09:29:07.795Z,98328.34
2023-03-06T09:31:35.019Z,98328.03
2023-03-06T09:34:02.102Z,98331.03
2023-03-06T09:36:30.336Z,98323.44
2023-03-06T09:38:57.512Z,98336.25
2023-03-06T09:41:33.184Z,98340.38
2023-03-06T09:44:18.521Z,98337.50
2023-03-06T09:47:06.946Z,98335.28
2023-03-06T09:50:01.605Z,98327.56
2023-03-06T09:52:46.547Z,98327.13
2023-03-06T09:55:27.040Z,98330.38
2023-03-06T09:58:16.177Z,98321.41
2023-03-06T10:01:17.985Z,98328.91
2023-03-06T10:03:54.994Z,98324.59
2023-03-06T10:06:56.406Z,98327.44
2023-03-06T10:09:38.433Z,98323.25
2023-03-06T10:12:38.775Z,98320.31
2023-03-06T10:15:38.526Z,98311.31
2023-03-06T10:18:05.756Z,98319.94
2023-03-06T10:21:00.962Z,98302.00
2023-03-06T10:24:37.749Z,98299.75
2023-03-06T10:27:21.898Z,98295.00
2023-03-06T10:30:12.212Z,98293.63
2023-03-06T10:32:58.697Z,98288.06
2023-03-06T10:35:45.695Z,98287.97
2023-03-06T10:38:31.792Z,98278.78
2023-03-06T10:41:24.909Z,98275.47
2023-03-06T10:44:01.347Z,98272.81
2023-03-06T10:46:35.756Z,98266.78
2023-03-06T10:49:36.762Z,98265.41
2023-03-06T10:52:22.786Z,98248.13
2023-03-06T10:54:50.141Z,98259.44
2023-03-06T10:57:32.931Z,98243.38
2023-03-06T11:00:06.238Z,98251.34
2023-03-06T11:02:38.391Z,98242.44
2023-03-06T11:05:17.646Z,98247.84
2023-03-06T11:08:00.148Z,98248.22
2023-03-06T11:10:31.677Z,98250.88
2023-03-06T11:13:10.405Z,98240.84
2023-03-06T11:15:38.046Z,98228.03
2023-03-06T11:18:07.792Z,98232.28
2023-03-06T11:20:55.266Z,98224.06
2023-03-06T11:23:46.499Z,98223.09
2023-03-06T11:26:16.592Z,98219.75
2023-03-06T11:28:49.256Z,98217.63
2023-03-06T11:31:31.611Z,98208.91
2023-03-06T11:34:18.271Z,98214.09
2023-03-06T11:37:03.668Z,98199.09
2023-03-06T11:39:36.579Z,98194.47
2023-03-06T11:42:21.785Z,98191.25
2023-03-06T11:45:22.116Z,98186.06
2023-03-06T11:48:14.701Z,98180.38
2023-03-06T11:50:46.040Z,98179.41
2023-03-06T11:53:36.949Z,98186.06
2023-03-06T11:56:19.223Z,98164.72
2023-03-06T11:59:20.471Z,98164.22
2023-03-06T12:02:15.092Z,98149.94
2023-03-06T12:05:32.521Z,98152.53
2023-03-06T12:09:02.264Z,98146.97
2023-03-06T12:11:48.480Z,98137.25
2023-03-06T12:14:57.046Z,98138.84
2023-03-06T12:17:54.685Z,98136.78
2023-03-06T12:21:02.518Z,98134.38
2023-03-06T12:24:12.288Z,98139.47
2023-03-06T12:27:05.065Z,98136.94
2023-03-06T12:29:56.463Z,98135.56
2023-03-06T12:33:08.917Z,98139.38
2023-03-06T12:36:19.721Z,98128.66
2023-03-06T12:39:03.129Z,98141.16
2023-03-06T12:41:33.799Z,98133.44
2023-03-06T12:44:15.732Z,98124.53
2023-03-06T12:46:57.771Z,98131.19
2023-03-06T12:49:33.341Z,98124.41
2023-03-06T12:52:04.358Z,98131.03
2023-03-06T12:54:40.642Z,98129.91
2023-03-06T12:57:09.796Z,98128.78
2023-03-06T12:59:43.878Z,98124.19
2023-03-06T13:02:32.773Z,98125.72
2023-03-06T13:05:31.389Z,98112.16
2023-03-06T13:08:26.208Z,98110.03
2023-03-06T13:11:27.812Z,98114.06
2023-03-06T13:13:56.513Z,98109.56
2023-03-06T13:16:32.865Z,98108.50
2023-03-06T13:19:18.254Z,98110.69
2023-03-06T13:22:00.696Z,98100.59
2023-03-06T13:24:37.164Z,98108.41
2023-03-06T13:27:12.278Z,98109.41
2023-03-06T13:29:39.640Z,98103.25
2023-03-06T13:32:19.614Z,98094.19
2023-03-06T13:34:49.947Z,98089.94
2023-03-06T13:37:16.843Z,98094.44
2023-03-06T13:39:57.071Z,98102.13
2023-03-06T13:42:59.578Z,98094.31
2023-03-06T13:45:46.940Z,98096.97
2023-03-06T13:48:47.816Z,98100.59
2023-03-06T13:51:31.657Z,98108.44
2023-03-06T13:54:48.313Z,98112.09
2023-03-06T13:57:27.995Z,98103.31
2023-03-06T14:00:09.548Z,98109.94
2023-03-06T14:03:34.161Z,98108.78
2023-03-06T14:06:02.352Z,98111.44
2023-03-06T14:08:33.178Z,98112.25
2023-03-06T14:11:19.366Z,98113.31
2023-03-06T14:13:55.788Z,98118.88
2023-03-06T14:16:37.587Z,98113.22
2023-03-06T14:19:19.970Z,98114.38
2023-03-06T14:21:55.560Z,98114.84
2023-03-06T14:24:38.117Z,98113.22
2023-03-06T14:27:05.550Z,98111.59
2023-03-06T14:29:33.755Z,98115.31
2023-03-06T14:32:02.250Z,98113.00
2023-03-06T14:34:40.812Z,98106.28
2023-03-06T14:37:22.540Z,98112.63
2023-03-06T14:39:50.141Z,98112.75
2023-03-06T14:42:28.494Z,98115.06
2023-03-06T14:45:19.396Z,98107.44
2023-03-06T14:47:53.300Z,98102.13
2023-03-06T14:50:29.271Z,98098.91
2023-03-06T14:53:22.048Z,98095.91
2023-03-06T14:56:06.764Z,98090.81
2023-03-06T14:58:51.424Z,98091.06
2023-03-06T15:01:40.159Z,98093.91
2023-03-06T15:04:36.541Z,98095.09
2023-03-06T15:07:19.374Z,98089.22
2023-03-06T15:09:53.256Z,98092.91
2023-03-06T15:12:20.744Z,98083.31
2023-03-06T15:15:00.282Z,98095.44
2023-03-06T15:17:32.008Z,98088.97
2023-03-06T15:20:01.253Z,98092.66
2023-03-06T15:22:38.950Z,98086.78
2023-03-06T15:25:26.742Z,98090.94
2023-03-06T15:28:32.653Z,98082.50
2023-03-06T15:31:22.031Z,98078.34
2023-03-06T15:34:07.586Z,98082.03
2023-03-06T15:36:38.382Z,98085.25
2023-03-06T15:39:39.308Z,98086.44
2023-03-06T15:42:25.634Z,98077.41
2023-03-06T15:45:27.802Z,98083.44
2023-03-06T15:47:55.936Z,98092.66
2023-03-06T15:50:27.814Z,98086.41
2023-03-06T15:52:54.926Z,98086.78
2023-03-06T15:55:26.013Z,98089.63
2023-03-06T15:58:06.168Z,98086.41
2023-03-06T16:00:38.385Z,98083.19
2023-03-06T16:03:05.917Z,98076.72
2023-03-06T16:05:33.540Z,98085.72
2023-03-06T16:08:00.616Z,98086.16
2023-03-06T16:10:30.724Z,98079.25
2023-03-06T16:13:04.279Z,98088.81
2023-03-06T16:15:45.205Z,98086.59
2023-03-06T16:18:13.400Z,98083.81
2023-03-06T16:20:41.605Z,98092.03
2023-03-06T16:23:10.659Z,98097.34
2023-03-06T16:25:42.085Z,98096.53
2023-03-06T16:28:15.515Z,98093.28
2023-03-06T16:30:44.761Z,98086.84
2023-03-06T16:33:13.309Z,98102.38
2023-03-06T16:35:41.248Z,98102.03
2023-03-06T16:38:10.291Z,98098.66
2023-03-06T16:40:41.198Z,98101.94
2023-03-06T16:43:10.601Z,98106.53
2023-03-06T16:45:41.884Z,98110.06
2023-03-06T16:48:16.912Z,98126.28
2023-03-06T16:50:45.066Z,98119.78
2023-03-06T16:53:12.024Z,98117.91
2023-03-06T16:55:39.399Z,98119.34
2023-03-06T16:58:08.523Z,98123.78
2023-03-06T17:00:35.811Z,98123.22
2023-03-06T17:03:03.366Z,98123.63
2023-03-06T17:05:34.619Z,98122.44
2023-03-06T17:08:03.562Z,98128.63
2023-03-06T17:10:31.144Z,98134.50
2023-03-06T17:12:58.224Z,98125.75
2023-03-06T17:15:25.893Z,98127.00
2023-03-06T17:17:53.324Z,98127.88
2023-03-06T17:20:20.724Z,98127.06
2023-03-06T17:22:47.989Z,98131.56
2023-03-06T17:25:15.380Z,98135.69
2023-03-06T17:27:42.410Z,98136.09
2023-03-06T17:30:11.231Z,98129.78
2023-03-06T17:32:40.908Z,98134.03
2023-03-06T17:35:09.523Z,98135.88
2023-03-06T17:37:36.615Z,98123.88
2023-03-06T17:40:09.244Z,98125.94
2023-03-06T17:42:36.452Z,98122.69
2023-03-06T17:45:04.999Z,98126.16
2023-03-06T17:47:32.012Z,98129.19
2023-03-06T17:49:59.612Z,98127.16
2023-03-06T17:52:27.073Z,98125.50
2023-03-06T17:54:54.230Z,98123.88
2023-03-06T17:57:21.410Z,98124.94
2023-03-06T17:59:48.982Z,98127.00
2023-03-06T18:02:15.972Z,98125.59
2023-03-06T18:04:43.588Z,98124.75
2023-03-06T18:07:10.776Z,98127.84
2023-03-06T18:09:38.495Z,98128.06
2023-03-06T18:12:06.048Z,98128.28
2023-03-06T18:14:33.474Z,98132.97
2023-03-06T18:17:00.635Z,98127.31
2023-03-06T18:19:28.109Z,98127.53
2023-03-06T18:21:55.159Z,98125.28
2023-03-06T18:24:22.356Z,98123.31
2023-03-06T18:26:49.406Z,98126.19
2023-03-06T18:29:16.759Z,98131.69
2023-03-06T18:31:44.611Z,98128.66
2023-03-06T18:34:17.785Z,98120.13
2023-03-06T18:36:47.233Z,98123.19
2023-03-06T18:39:15.728Z,98127.91
2023-03-06T18:41:42.912Z,98131.19
2023-03-06T18:44:15.243Z,98128.75
2023-03-06T18:46:42.700Z,98130.22
2023-03-06T18:49:12.932Z,98128.81
2023-03-06T18:51:40.727Z,98129.03
2023-03-06T18:54:08.334Z,98119.88
2023-03-06T18:56:35.800Z,98124.59
2023-03-06T18:59:06.483Z,98120.53
2023-03-06T19:01:34.579Z,98129.72
2023-03-06T19:04:04.716Z,98123.81
2023-03-06T19:06:32.292Z,98128.53
2023-03-06T19:09:01.680Z,98127.13
2023-03-06T19:11:29.967Z,98118.59
2023-03-06T19:13:57.620Z,98123.88
2023-03-06T19:16:28.538Z,98117.97
2023-03-06T19:18:57.191Z,98116.56
2023-03-06T19:21:27.064Z,98118.84
2023-03-06T19:23:55.954Z,98115.97
2023-03-06T19:26:23.627Z,98120.91
2023-03-06T19:28:52.434Z,98116.03
2023-03-06T19:31:26.073Z,98117.25
2023-03-06T19:33:56.500Z,98122.53
2023-03-06T19:36:28.567Z,98114.03
2023-03-06T19:38:59.065Z,98113.44
2023-03-06T19:41:26.927Z,98118.09
2023-03-06T19:43:58.789Z,98114.84
2023-03-06T19:46:26.725Z,98116.31
2023-03-06T19:49:12.062Z,98114.91
2023-03-06T19:51:39.015Z,98110.03
2023-03-06T19:54:06.212Z,98108.63
2023-03-06T19:56:33.856Z,98108.03
2023-03-06T19:59:01.032Z,98105.81
2023-03-06T20:01:28.727Z,98109.69
2023-03-06T20:04:07.407Z,98108.06
2023-03-06T20:06:36.599Z,98118.84
2023-03-06T20:09:08.771Z,98113.19
2023-03-06T20:11:35.947Z,98119.25
2023-03-06T20:14:07.571Z,98119.88
2023-03-06T20:16:35.896Z,98128.03
2023-03-06T20:19:04.092Z,98128.03
2023-03-06T20:21:37.402Z,98123.16
2023-03-06T20:24:07.237Z,98125.22
2023-03-06T20:26:34.803Z,98127.25
2023-03-06T20:29:02.312Z,98131.72
2023-03-06T20:31:30.601Z,98124.00
2023-03-06T20:33:59.583Z,98122.38
2023-03-06T20:36:31.170Z,98126.03
2023-03-06T20:39:08.764Z,98122.78
2023-03-06T20:41:36.048Z,98122.78
2023-03-06T20:44:07.392Z,98121.19
2023-03-06T20:46:34.675Z,98121.19
2023-03-06T20:49:02.356Z,98128.53
2023-03-06T20:51:32.348Z,98121.59
2023-03-06T20:54:02.376Z,98125.25
2023-03-06T20:56:33.699Z,98127.88
2023-03-06T20:59:02.409Z,98129.94
2023-03-06T21:01:41.058Z,98124.06
2023-03-06T21:04:13.751Z,98122.41
2023-03-06T21:06:46.155Z,98121.00
2023-03-06T21:09:16.825Z,98120.22
2023-03-06T21:11:44.386Z,98122.88
2023-03-06T21:14:13.682Z,98126.09
2023-03-06T21:16:41.454Z,98122.22
2023-03-06T21:19:09.636Z,98113.53
2023-03-06T21:21:36.632Z,98115.13
2023-03-06T21:24:05.287Z,98113.72
2023-03-06T21:26:33.891Z,98117.38
2023-03-06T21:29:02.571Z,98117.59
2023-03-06T21:31:30.850Z,98113.13
2023-03-06T21:33:58.910Z,98111.47
2023-03-06T21:36:26.493Z,98116.75
2023-03-06T21:38:54.862Z,98118.81
2023-03-06T21:41:26.650Z,98118.03
2023-03-06T21:43:59.662Z,98111.91
2023-03-06T21:46:28.101Z,98114.56
2023-03-06T21:48:56.186Z,98111.09
2023-03-06T21:51:24.987Z,98112.31
2023-03-06T21:53:54.177Z,98110.69
2023-03-06T21:56:25.255Z,98105.41
2023-03-06T21:59:05.074Z,98108.28
2023-03-06T22:01:32.794Z,98108.28
2023-03-06T22:04:00.513Z,98100.56
2023-03-06T22:06:30.328Z,98093.66
2023-03-06T22:09:00.316Z,98098.94
2023-03-06T22:11:31.154Z,98094.66
2023-03-06T22:13:58.656Z,98092.03
2023-03-06T22:16:25.774Z,98092.03
2023-03-06T22:18:53.110Z,98085.75
2023-03-06T22:21:22.632Z,98078.03
2023-03-06T22:23:59.007Z,98085.13
2023-03-06T22:26:31.314Z,98079.66
2023-03-06T22:28:58.621Z,98082.72
2023-03-06T22:31:28.914Z,98084.75
2023-03-06T22:34:00.077Z,98079.47
2023-03-06T22:36:32.589Z,98084.16
2023-03-06T22:39:01.331Z,98086.19
2023-03-06T22:41:28.905Z,98083.34
2023-03-06T22:44:01.479Z,98082.94
2023-03-06T22:46:29.842Z,98085.56
2023-03-06T22:48:59.588Z,98091.06
2023-03-06T22:51:28.790Z,98086.00
2023-03-06T22:53:56.405Z,98083.78
2023-03-06T22:56:24.312Z,98086.00
2023-03-06T22:58:51.955Z,98089.66
2023-03-06T23:01:23.178Z,98088.03
2023-03-06T23:03:54.785Z,98086.41
2023-03-06T23:06:37.906Z,98093.50
2023-03-06T23:09:16.101Z,98085.81
2023-03-06T23:12:01.656Z,98092.09
2023-03-06T23:14:50.961Z,98094.53
2023-03-06T23:17:36.933Z,98088.66
2023-03-06T23:20:23.241Z,98092.50
2023-03-06T23:23:11.033Z,98087.22
2023-03-06T23:25:41.582Z,98089.25
2023-03-06T23:28:08.519Z,98084.41
2023-03-06T23:30:38.960Z,98096.59
2023-03-06T23:33:06.499Z,98090.88
2023-03-06T23:35:34.981Z,98095.38
2023-03-06T23:38:03.320Z,98096.38
2023-03-06T23:40:34.499Z,98090.09
2023-03-06T23:43:01.527Z,98099.84
2023-03-06T23:45:28.852Z,98100.25
2023-03-06T23:47:56.379Z,98101.25
2023-03-06T23:50:24.586Z,98101.47
2023-03-06T23:52:55.574Z,98094.56
2023-03-06T23:55:22.863Z,98096.19
2023-03-06T23:57:49.795Z,98097.19
